Orange City, IA

1:40 PM CDT on September 25, 2016 (GMT -0500)
NWC Rec Center | | Change Station

Elev 1411 ft 43.00 °N, 96.06 °W | Updated 2 seconds ago

Overcast
Overcast
59.2 °F
Feels Like 59.2 °F
N
11.1
Wind Variable Wind from WSW
Gusts 11.1 mph

Today
High -- | Low -- °F
--% Chance of Precip.
Yesterday
High -- | Low -- °F
Precip. -- in
Pressure 30.09 in
Visibility 10.0 miles
Clouds Scattered Clouds 3100 ft
Mostly Cloudy 3800 ft
Overcast 4800 ft
Dew Point 52 °F
Humidity 78%
Rainfall 0.07 in
Snow Depth Not available.
7:15 AM 7:15 PM
Waning Crescent, 26% visible
METAR KORC 251835Z AUTO 29016G21KT 10SM SCT031 BKN038 OVC048 16/11 A3009 RMK AO2
Pressure 30.09 in
Visibility 10.0 miles
Clouds Scattered Clouds 3100 ft
Mostly Cloudy 3800 ft
Overcast 4800 ft
Dew Point 52 °F
Humidity 78%
Rainfall 0.07 in
Snow Depth Not available.
7:15 AM 7:15 PM
Waning Crescent, 26% visible
METAR KORC 251835Z AUTO 29016G21KT 10SM SCT031 BKN038 OVC048 16/11 A3009 RMK AO2

10-Day Weather Forecast

Almanac

Astronomy

Sep. 25, 2016 Rise Set
Actual Time
Civil Twilight
Nautical Twilight
Astronomical Twilight
Moon
Length of Visible Light
Length of Day
Tomorrow will be .
, % of the Moon is Illuminated

Today's Extremes

State Highs State Lows

Community

WunderPhotos

Upload Photos

1,941,685 photos uploaded!

WunderBlog® & News

Nearby

Air Quality

  Air Quality AQ Index Pollutant
Not available.

Snow Depth

Station Depth Elevation

Earthquake Activity

City Distance Mag. Time & Date
Minimum magnitude displayed is 2.5.

Coastal Water Temperatures

Place Temperature

Stations

Nearby Weather Stations

Station Location Temp. Windchill Dew Point Humidity Wind Precip. Elev Updated Type
                   

Watches & Warnings

There are currently no watches in effect.